sensor_id;sensor_type;location;lat;lon;timestamp;pressure;altitude;pressure_sealevel;temperature;humidity
41044;BME280;51680;49.806;18.774;2023-07-20T00:02:11;96694.97;;;22.94;53.44
41044;BME280;51680;49.806;18.774;2023-07-20T00:05:15;96705.03;;;22.98;53.20
41044;BME280;51680;49.806;18.774;2023-07-20T00:08:18;96732.25;;;23.15;53.07
41044;BME280;51680;49.806;18.774;2023-07-20T00:11:21;96744.50;;;23.30;54.06
41044;BME280;51680;49.806;18.774;2023-07-20T00:14:24;96743.09;;;23.34;55.67
41044;BME280;51680;49.806;18.774;2023-07-20T00:17:26;96742.66;;;23.31;56.31
41044;BME280;51680;49.806;18.774;2023-07-20T00:20:27;96738.78;;;23.33;57.16
41044;BME280;51680;49.806;18.774;2023-07-20T00:23:29;96746.38;;;23.36;57.84
41044;BME280;51680;49.806;18.774;2023-07-20T00:26:31;96742.09;;;23.35;58.48
41044;BME280;51680;49.806;18.774;2023-07-20T00:29:34;96743.47;;;23.31;58.55
41044;BME280;51680;49.806;18.774;2023-07-20T00:32:36;96743.03;;;23.28;58.32
41044;BME280;51680;49.806;18.774;2023-07-20T00:35:39;96737.28;;;23.24;57.98
41044;BME280;51680;49.806;18.774;2023-07-20T00:38:42;96738.09;;;23.25;57.93
41044;BME280;51680;49.806;18.774;2023-07-20T00:41:43;96734.81;;;23.23;57.72
41044;BME280;51680;49.806;18.774;2023-07-20T00:44:47;96727.44;;;23.25;57.63
41044;BME280;51680;49.806;18.774;2023-07-20T00:47:48;96731.97;;;23.24;57.26
41044;BME280;51680;49.806;18.774;2023-07-20T00:50:50;96737.28;;;23.24;57.29
41044;BME280;51680;49.806;18.774;2023-07-20T00:53:52;96732.75;;;23.25;57.36
41044;BME280;51680;49.806;18.774;2023-07-20T00:56:55;96733.59;;;23.25;56.90
41044;BME280;51680;49.806;18.774;2023-07-20T00:59:58;96730.75;;;23.27;57.29
41044;BME280;51680;49.806;18.774;2023-07-20T01:03:00;96728.22;;;23.19;57.22
41044;BME280;51680;49.806;18.774;2023-07-20T01:06:09;96728.84;;;23.21;57.24
41044;BME280;51680;49.806;18.774;2023-07-20T01:09:13;96721.50;;;23.23;56.56
41044;BME280;51680;49.806;18.774;2023-07-20T01:12:22;96728.47;;;23.24;56.60
41044;BME280;51680;49.806;18.774;2023-07-20T01:15:30;96734.81;;;23.23;56.27
41044;BME280;51680;49.806;18.774;2023-07-20T01:18:32;96726.81;;;23.23;56.07
41044;BME280;51680;49.806;18.774;2023-07-20T01:21:39;96732.56;;;23.26;56.65
41044;BME280;51680;49.806;18.774;2023-07-20T01:24:56;96741.41;;;23.27;57.13
41044;BME280;51680;49.806;18.774;2023-07-20T01:28:17;96745.47;;;23.23;58.36
41044;BME280;51680;49.806;18.774;2023-07-20T01:31:25;96737.19;;;23.18;57.49
41044;BME280;51680;49.806;18.774;2023-07-20T01:34:27;96735.56;;;23.17;57.50
41044;BME280;51680;49.806;18.774;2023-07-20T01:37:30;96746.22;;;23.17;57.95
41044;BME280;51680;49.806;18.774;2023-07-20T01:40:34;96746.56;;;23.14;58.04
41044;BME280;51680;49.806;18.774;2023-07-20T01:43:35;96747.59;;;23.13;58.56
41044;BME280;51680;49.806;18.774;2023-07-20T01:46:40;96752.28;;;23.11;58.04
41044;BME280;51680;49.806;18.774;2023-07-20T01:49:42;96754.63;;;22.99;58.22
41044;BME280;51680;49.806;18.774;2023-07-20T01:52:44;96757.22;;;22.93;58.68
41044;BME280;51680;49.806;18.774;2023-07-20T01:55:46;96768.25;;;22.90;59.46
41044;BME280;51680;49.806;18.774;2023-07-20T01:58:48;96762.69;;;22.85;59.30
41044;BME280;51680;49.806;18.774;2023-07-20T02:01:52;96768.00;;;22.85;58.76
41044;BME280;51680;49.806;18.774;2023-07-20T02:04:54;96789.31;;;22.85;58.88
41044;BME280;51680;49.806;18.774;2023-07-20T02:07:55;96788.28;;;22.86;58.78
41044;BME280;51680;49.806;18.774;2023-07-20T02:10:57;96782.34;;;22.84;58.35
41044;BME280;51680;49.806;18.774;2023-07-20T02:13:59;96773.88;;;22.80;58.19
41044;BME280;51680;49.806;18.774;2023-07-20T02:17:03;96778.56;;;22.78;58.18
41044;BME280;51680;49.806;18.774;2023-07-20T02:20:05;96782.63;;;22.74;58.07
41044;BME280;51680;49.806;18.774;2023-07-20T02:23:09;96800.81;;;22.71;58.19
41044;BME280;51680;49.806;18.774;2023-07-20T02:26:11;96793.59;;;22.65;58.12
41044;BME280;51680;49.806;18.774;2023-07-20T02:29:13;96795.97;;;22.60;57.92
41044;BME280;51680;49.806;18.774;2023-07-20T02:32:16;96805.34;;;22.56;57.68
41044;BME280;51680;49.806;18.774;2023-07-20T02:35:18;96794.44;;;22.51;57.93
41044;BME280;51680;49.806;18.774;2023-07-20T02:38:20;96799.50;;;22.46;57.99
41044;BME280;51680;49.806;18.774;2023-07-20T02:41:22;96796.44;;;22.34;57.84
41044;BME280;51680;49.806;18.774;2023-07-20T02:44:23;96804.06;;;22.23;57.92
41044;BME280;51680;49.806;18.774;2023-07-20T02:47:27;96816.72;;;22.06;57.96
41044;BME280;51680;49.806;18.774;2023-07-20T02:50:28;96819.63;;;21.97;57.97
41044;BME280;51680;49.806;18.774;2023-07-20T02:53:30;96822.38;;;21.89;58.31
41044;BME280;51680;49.806;18.774;2023-07-20T02:56:32;96822.63;;;21.79;58.42
41044;BME280;51680;49.806;18.774;2023-07-20T02:59:34;96834.84;;;21.74;58.49
41044;BME280;51680;49.806;18.774;2023-07-20T03:02:37;96829.88;;;21.71;58.74
41044;BME280;51680;49.806;18.774;2023-07-20T03:05:40;96842.84;;;21.66;59.04
41044;BME280;51680;49.806;18.774;2023-07-20T03:08:42;96848.03;;;21.59;59.08
41044;BME280;51680;49.806;18.774;2023-07-20T03:11:49;96855.50;;;21.64;59.37
41044;BME280;51680;49.806;18.774;2023-07-20T03:14:51;96855.66;;;21.62;59.55
41044;BME280;51680;49.806;18.774;2023-07-20T03:17:54;96866.47;;;21.61;59.91
41044;BME280;51680;49.806;18.774;2023-07-20T03:20:56;96872.13;;;21.58;59.80
41044;BME280;51680;49.806;18.774;2023-07-20T03:23:59;96872.50;;;21.55;60.20
41044;BME280;51680;49.806;18.774;2023-07-20T03:27:01;96881.44;;;21.54;60.16
41044;BME280;51680;49.806;18.774;2023-07-20T03:30:03;96895.28;;;21.49;60.32
41044;BME280;51680;49.806;18.774;2023-07-20T03:33:09;96899.75;;;21.49;60.47
41044;BME280;51680;49.806;18.774;2023-07-20T03:36:10;96897.81;;;21.43;60.71
41044;BME280;51680;49.806;18.774;2023-07-20T03:39:12;96898.81;;;21.42;60.94
41044;BME280;51680;49.806;18.774;2023-07-20T03:42:14;96889.84;;;21.43;61.03
41044;BME280;51680;49.806;18.774;2023-07-20T03:45:16;96901.94;;;21.45;61.07
41044;BME280;51680;49.806;18.774;2023-07-20T03:48:21;96902.41;;;21.49;61.40
41044;BME280;51680;49.806;18.774;2023-07-20T03:51:23;96899.94;;;21.47;61.35
41044;BME280;51680;49.806;18.774;2023-07-20T03:54:25;96912.53;;;21.53;61.47
41044;BME280;51680;49.806;18.774;2023-07-20T03:57:27;96915.81;;;21.55;61.39
41044;BME280;51680;49.806;18.774;2023-07-20T04:00:28;96913.94;;;21.64;61.46
41044;BME280;51680;49.806;18.774;2023-07-20T04:03:32;96910.59;;;21.70;61.54
41044;BME280;51680;49.806;18.774;2023-07-20T04:06:34;96917.00;;;21.75;61.57
41044;BME280;51680;49.806;18.774;2023-07-20T04:09:35;96901.56;;;21.79;61.74
41044;BME280;51680;49.806;18.774;2023-07-20T04:12:37;96912.88;;;21.73;61.81
41044;BME280;51680;49.806;18.774;2023-07-20T04:15:39;96925.53;;;21.71;61.74
41044;BME280;51680;49.806;18.774;2023-07-20T04:18:42;96922.69;;;21.72;61.98
41044;BME280;51680;49.806;18.774;2023-07-20T04:21:44;96924.47;;;21.80;61.71
41044;BME280;51680;49.806;18.774;2023-07-20T04:24:46;96919.19;;;21.94;61.51
41044;BME280;51680;49.806;18.774;2023-07-20T04:27:48;96914.41;;;21.90;61.84
41044;BME280;51680;49.806;18.774;2023-07-20T04:30:50;96917.03;;;22.12;61.08
41044;BME280;51680;49.806;18.774;2023-07-20T04:33:53;96916.16;;;22.49;59.99
41044;BME280;51680;49.806;18.774;2023-07-20T04:36:56;96925.56;;;22.74;59.38
41044;BME280;51680;49.806;18.774;2023-07-20T04:39:59;96913.50;;;22.78;59.80
41044;BME280;51680;49.806;18.774;2023-07-20T04:43:01;96913.34;;;22.65;59.92
41044;BME280;51680;49.806;18.774;2023-07-20T04:46:03;96915.06;;;22.58;60.34
41044;BME280;51680;49.806;18.774;2023-07-20T04:49:09;96916.88;;;22.43;60.89
41044;BME280;51680;49.806;18.774;2023-07-20T04:52:15;96918.31;;;22.16;60.90
41044;BME280;51680;49.806;18.774;2023-07-20T04:55:16;96916.84;;;22.14;61.64
41044;BME280;51680;49.806;18.774;2023-07-20T04:58:18;96907.00;;;21.85;62.46
41044;BME280;51680;49.806;18.774;2023-07-20T05:01:21;96909.44;;;21.87;62.54
41044;BME280;51680;49.806;18.774;2023-07-20T05:04:24;96920.84;;;21.73;63.47
41044;BME280;51680;49.806;18.774;2023-07-20T05:07:25;96913.56;;;21.67;63.28
41044;BME280;51680;49.806;18.774;2023-07-20T05:10:27;96907.34;;;21.97;62.74
41044;BME280;51680;49.806;18.774;2023-07-20T05:13:29;96922.38;;;22.27;61.16
41044;BME280;51680;49.806;18.774;2023-07-20T05:16:31;96928.16;;;22.30;61.01
41044;BME280;51680;49.806;18.774;2023-07-20T05:19:38;96925.47;;;22.67;60.26
41044;BME280;51680;49.806;18.774;2023-07-20T05:22:40;96927.47;;;22.51;60.53
41044;BME280;51680;49.806;18.774;2023-07-20T05:25:42;96923.84;;;22.44;60.66
41044;BME280;51680;49.806;18.774;2023-07-20T05:28:44;96925.25;;;22.69;60.51
41044;BME280;51680;49.806;18.774;2023-07-20T05:31:45;96927.44;;;23.09;59.29
41044;BME280;51680;49.806;18.774;2023-07-20T05:34:51;96925.09;;;23.35;58.75
41044;BME280;51680;49.806;18.774;2023-07-20T05:37:53;96921.03;;;23.60;58.41
41044;BME280;51680;49.806;18.774;2023-07-20T05:40:59;96923.59;;;23.89;58.84
41044;BME280;51680;49.806;18.774;2023-07-20T05:44:01;96919.91;;;24.11;57.44
41044;BME280;51680;49.806;18.774;2023-07-20T05:47:03;96911.03;;;24.59;56.25
41044;BME280;51680;49.806;18.774;2023-07-20T05:50:07;96901.88;;;25.15;55.21
41044;BME280;51680;49.806;18.774;2023-07-20T05:53:09;96909.22;;;25.60;54.30
41044;BME280;51680;49.806;18.774;2023-07-20T05:56:11;96907.06;;;26.09;53.37
41044;BME280;51680;49.806;18.774;2023-07-20T05:59:12;96907.03;;;26.41;52.60
41044;BME280;51680;49.806;18.774;2023-07-20T06:02:14;96909.66;;;26.74;51.94
41044;BME280;51680;49.806;18.774;2023-07-20T06:05:17;96895.75;;;26.96;50.77
41044;BME280;51680;49.806;18.774;2023-07-20T06:08:19;96894.88;;;27.15;49.86
41044;BME280;51680;49.806;18.774;2023-07-20T06:11:21;96892.00;;;27.10;50.20
41044;BME280;51680;49.806;18.774;2023-07-20T06:14:22;96898.00;;;27.19;50.34
41044;BME280;51680;49.806;18.774;2023-07-20T06:17:24;96897.16;;;27.56;48.99
41044;BME280;51680;49.806;18.774;2023-07-20T06:20:27;96905.13;;;28.00;47.45
41044;BME280;51680;49.806;18.774;2023-07-20T06:23:29;96912.72;;;28.34;46.77
41044;BME280;51680;49.806;18.774;2023-07-20T06:26:31;96913.72;;;28.15;46.67
41044;BME280;51680;49.806;18.774;2023-07-20T06:29:38;96912.66;;;28.40;46.35
41044;BME280;51680;49.806;18.774;2023-07-20T06:32:40;96917.13;;;28.71;46.70
41044;BME280;51680;49.806;18.774;2023-07-20T06:35:43;96902.34;;;28.80;46.00
41044;BME280;51680;49.806;18.774;2023-07-20T06:38:45;96903.97;;;29.05;45.18
41044;BME280;51680;49.806;18.774;2023-07-20T06:41:46;96899.84;;;29.21;44.89
41044;BME280;51680;49.806;18.774;2023-07-20T06:44:48;96911.44;;;29.51;44.61
41044;BME280;51680;49.806;18.774;2023-07-20T06:47:50;96900.31;;;29.77;43.39
41044;BME280;51680;49.806;18.774;2023-07-20T06:50:53;96895.88;;;30.12;42.54
41044;BME280;51680;49.806;18.774;2023-07-20T06:53:55;96903.06;;;30.41;42.98
41044;BME280;51680;49.806;18.774;2023-07-20T06:56:57;96906.47;;;30.71;41.92
41044;BME280;51680;49.806;18.774;2023-07-20T06:59:59;96905.38;;;30.49;41.85
41044;BME280;51680;49.806;18.774;2023-07-20T07:03:00;96908.69;;;30.51;41.90
41044;BME280;51680;49.806;18.774;2023-07-20T07:06:04;96896.25;;;30.62;41.21
41044;BME280;51680;49.806;18.774;2023-07-20T07:09:06;96904.59;;;30.72;41.09
41044;BME280;51680;49.806;18.774;2023-07-20T07:12:08;96909.16;;;30.71;41.35
41044;BME280;51680;49.806;18.774;2023-07-20T07:15:10;96907.28;;;30.83;40.57
41044;BME280;51680;49.806;18.774;2023-07-20T07:18:12;96912.41;;;31.08;40.83
41044;BME280;51680;49.806;18.774;2023-07-20T07:21:15;96906.53;;;31.22;40.23
41044;BME280;51680;49.806;18.774;2023-07-20T07:24:17;96904.72;;;31.39;40.27
41044;BME280;51680;49.806;18.774;2023-07-20T07:27:18;96904.34;;;31.47;39.75
41044;BME280;51680;49.806;18.774;2023-07-20T07:30:20;96907.50;;;31.72;39.93
41044;BME280;51680;49.806;18.774;2023-07-20T07:33:22;96899.31;;;31.67;40.03
41044;BME280;51680;49.806;18.774;2023-07-20T07:36:25;96897.31;;;31.46;40.44
41044;BME280;51680;49.806;18.774;2023-07-20T07:39:27;96896.09;;;31.14;40.42
41044;BME280;51680;49.806;18.774;2023-07-20T07:42:30;96907.78;;;31.43;40.78
41044;BME280;51680;49.806;18.774;2023-07-20T07:45:34;96896.38;;;31.69;39.82
41044;BME280;51680;49.806;18.774;2023-07-20T07:48:36;96904.16;;;31.93;39.72
41044;BME280;51680;49.806;18.774;2023-07-20T07:51:39;96899.75;;;32.20;38.63
41044;BME280;51680;49.806;18.774;2023-07-20T07:54:41;96907.38;;;32.07;38.47
41044;BME280;51680;49.806;18.774;2023-07-20T07:57:43;96903.16;;;32.27;38.55
41044;BME280;51680;49.806;18.774;2023-07-20T08:00:46;96911.16;;;32.22;38.46
41044;BME280;51680;49.806;18.774;2023-07-20T08:03:48;96910.44;;;31.71;38.63
41044;BME280;51680;49.806;18.774;2023-07-20T08:06:51;96912.47;;;31.75;38.97
41044;BME280;51680;49.806;18.774;2023-07-20T08:09:53;96915.44;;;31.90;38.45
41044;BME280;51680;49.806;18.774;2023-07-20T08:12:55;96927.59;;;32.21;38.56
41044;BME280;51680;49.806;18.774;2023-07-20T08:15:56;96921.72;;;32.40;37.48
41044;BME280;51680;49.806;18.774;2023-07-20T08:18:59;96923.63;;;32.40;38.24
41044;BME280;51680;49.806;18.774;2023-07-20T08:22:02;96922.56;;;32.57;37.56
41044;BME280;51680;49.806;18.774;2023-07-20T08:25:05;96925.00;;;32.75;37.34
41044;BME280;51680;49.806;18.774;2023-07-20T08:28:07;96931.19;;;32.76;37.62
41044;BME280;51680;49.806;18.774;2023-07-20T08:31:10;96920.41;;;32.43;37.96
41044;BME280;51680;49.806;18.774;2023-07-20T08:34:11;96927.38;;;32.22;38.13
41044;BME280;51680;49.806;18.774;2023-07-20T08:37:14;96929.53;;;32.09;38.46
41044;BME280;51680;49.806;18.774;2023-07-20T08:40:16;96932.25;;;32.09;38.14
41044;BME280;51680;49.806;18.774;2023-07-20T08:43:18;96928.44;;;32.38;38.24
41044;BME280;51680;49.806;18.774;2023-07-20T08:46:20;96933.53;;;32.67;37.69
41044;BME280;51680;49.806;18.774;2023-07-20T08:49:23;96923.47;;;32.79;36.66
41044;BME280;51680;49.806;18.774;2023-07-20T08:52:27;96924.50;;;32.78;36.74
41044;BME280;51680;49.806;18.774;2023-07-20T08:55:28;96927.63;;;32.70;35.90
41044;BME280;51680;49.806;18.774;2023-07-20T08:58:31;96920.75;;;32.79;37.59
41044;BME280;51680;49.806;18.774;2023-07-20T09:01:35;96932.69;;;32.83;37.64
41044;BME280;51680;49.806;18.774;2023-07-20T09:04:37;96934.00;;;32.81;37.55
41044;BME280;51680;49.806;18.774;2023-07-20T09:07:41;96928.28;;;32.61;37.36
41044;BME280;51680;49.806;18.774;2023-07-20T09:10:42;96931.88;;;32.66;37.02
41044;BME280;51680;49.806;18.774;2023-07-20T09:13:44;96924.50;;;32.78;36.87
41044;BME280;51680;49.806;18.774;2023-07-20T09:16:47;96924.41;;;32.57;36.96
41044;BME280;51680;49.806;18.774;2023-07-20T09:19:49;96920.75;;;32.46;37.58
41044;BME280;51680;49.806;18.774;2023-07-20T09:22:52;96917.31;;;32.51;37.29
41044;BME280;51680;49.806;18.774;2023-07-20T09:25:54;96922.34;;;32.14;38.40
41044;BME280;51680;49.806;18.774;2023-07-20T09:28:56;96925.41;;;32.34;37.94
41044;BME280;51680;49.806;18.774;2023-07-20T09:31:58;96927.97;;;32.57;38.54
41044;BME280;51680;49.806;18.774;2023-07-20T09:35:01;96922.22;;;32.87;37.03
41044;BME280;51680;49.806;18.774;2023-07-20T09:38:04;96923.16;;;32.97;37.23
41044;BME280;51680;49.806;18.774;2023-07-20T09:41:05;96916.06;;;32.75;37.45
41044;BME280;51680;49.806;18.774;2023-07-20T09:44:07;96927.28;;;32.50;37.14
41044;BME280;51680;49.806;18.774;2023-07-20T09:47:10;96922.53;;;32.74;37.31
41044;BME280;51680;49.806;18.774;2023-07-20T09:50:12;96916.28;;;32.90;35.73
41044;BME280;51680;49.806;18.774;2023-07-20T09:53:17;96923.28;;;33.07;36.09
41044;BME280;51680;49.806;18.774;2023-07-20T09:56:21;96904.63;;;33.27;35.59
41044;BME280;51680;49.806;18.774;2023-07-20T09:59:24;96905.16;;;33.46;34.53
41044;BME280;51680;49.806;18.774;2023-07-20T10:02:32;96903.38;;;33.56;34.56
41044;BME280;51680;49.806;18.774;2023-07-20T10:05:36;96903.22;;;33.41;34.17
41044;BME280;51680;49.806;18.774;2023-07-20T10:08:41;96902.91;;;33.21;35.64
41044;BME280;51680;49.806;18.774;2023-07-20T10:11:47;96902.22;;;33.09;35.84
41044;BME280;51680;49.806;18.774;2023-07-20T10:15:05;96910.56;;;32.86;36.06
41044;BME280;51680;49.806;18.774;2023-07-20T10:18:15;96912.28;;;32.59;35.59
41044;BME280;51680;49.806;18.774;2023-07-20T10:21:19;96907.25;;;32.30;35.57
41044;BME280;51680;49.806;18.774;2023-07-20T10:24:25;96911.84;;;32.01;35.96
41044;BME280;51680;49.806;18.774;2023-07-20T10:27:28;96906.34;;;31.68;36.63
41044;BME280;51680;49.806;18.774;2023-07-20T10:30:30;96910.72;;;31.41;36.93
41044;BME280;51680;49.806;18.774;2023-07-20T10:33:32;96917.09;;;31.12;37.73
41044;BME280;51680;49.806;18.774;2023-07-20T10:36:43;96920.63;;;30.90;37.62
41044;BME280;51680;49.806;18.774;2023-07-20T10:39:47;96914.56;;;30.71;38.50
41044;BME280;51680;49.806;18.774;2023-07-20T10:42:48;96913.00;;;30.64;38.76
41044;BME280;51680;49.806;18.774;2023-07-20T10:45:52;96908.06;;;30.61;38.05
41044;BME280;51680;49.806;18.774;2023-07-20T10:49:00;96912.06;;;30.93;37.97
41044;BME280;51680;49.806;18.774;2023-07-20T10:52:10;96905.72;;;31.22;37.45
41044;BME280;51680;49.806;18.774;2023-07-20T10:55:15;96904.72;;;31.39;36.78
41044;BME280;51680;49.806;18.774;2023-07-20T10:58:17;96900.44;;;31.55;37.23
41044;BME280;51680;49.806;18.774;2023-07-20T11:01:21;96901.28;;;31.55;36.59
41044;BME280;51680;49.806;18.774;2023-07-20T11:04:38;96909.09;;;31.57;37.59
41044;BME280;51680;49.806;18.774;2023-07-20T11:07:40;96882.47;;;31.60;36.82
41044;BME280;51680;49.806;18.774;2023-07-20T11:10:43;96885.63;;;31.57;36.65
41044;BME280;51680;49.806;18.774;2023-07-20T11:13:53;96898.28;;;31.40;36.90
41044;BME280;51680;49.806;18.774;2023-07-20T11:16:55;96900.97;;;31.40;36.60
41044;BME280;51680;49.806;18.774;2023-07-20T11:19:58;96902.38;;;31.43;37.55
41044;BME280;51680;49.806;18.774;2023-07-20T11:23:01;96908.56;;;31.43;37.59
41044;BME280;51680;49.806;18.774;2023-07-20T11:26:04;96905.13;;;31.31;37.16
41044;BME280;51680;49.806;18.774;2023-07-20T11:29:06;96905.91;;;31.20;37.55
41044;BME280;51680;49.806;18.774;2023-07-20T11:32:08;96920.16;;;31.04;37.20
41044;BME280;51680;49.806;18.774;2023-07-20T11:35:12;96913.88;;;30.76;38.01
41044;BME280;51680;49.806;18.774;2023-07-20T11:38:14;96922.03;;;30.46;38.34
41044;BME280;51680;49.806;18.774;2023-07-20T11:41:18;96917.16;;;30.02;39.74
41044;BME280;51680;49.806;18.774;2023-07-20T11:44:21;96918.84;;;29.56;39.38
41044;BME280;51680;49.806;18.774;2023-07-20T11:47:29;96925.00;;;29.26;40.84
41044;BME280;51680;49.806;18.774;2023-07-20T11:50:31;96923.47;;;29.01;42.53
41044;BME280;51680;49.806;18.774;2023-07-20T11:53:32;96921.47;;;28.90;43.50
41044;BME280;51680;49.806;18.774;2023-07-20T11:56:36;96906.31;;;28.95;42.77
41044;BME280;51680;49.806;18.774;2023-07-20T11:59:37;96911.81;;;29.07;41.76
41044;BME280;51680;49.806;18.774;2023-07-20T12:02:53;96904.03;;;29.17;42.31
41044;BME280;51680;49.806;18.774;2023-07-20T12:05:55;96905.03;;;29.34;42.34
41044;BME280;51680;49.806;18.774;2023-07-20T12:08:58;96904.38;;;29.20;42.33
41044;BME280;51680;49.806;18.774;2023-07-20T12:12:09;96898.09;;;28.72;44.46
41044;BME280;51680;49.806;18.774;2023-07-20T12:15:16;96910.69;;;28.72;45.28
41044;BME280;51680;49.806;18.774;2023-07-20T12:18:18;96904.47;;;28.78;43.25
41044;BME280;51680;49.806;18.774;2023-07-20T12:21:24;96901.44;;;28.86;43.86
41044;BME280;51680;49.806;18.774;2023-07-20T12:24:26;96899.63;;;29.04;42.94
41044;BME280;51680;49.806;18.774;2023-07-20T12:27:29;96897.28;;;29.26;43.24
41044;BME280;51680;49.806;18.774;2023-07-20T12:30:32;96898.00;;;29.33;42.31
41044;BME280;51680;49.806;18.774;2023-07-20T12:33:34;96894.81;;;29.42;42.72
41044;BME280;51680;49.806;18.774;2023-07-20T12:36:36;96883.69;;;29.50;42.79
41044;BME280;51680;49.806;18.774;2023-07-20T12:39:37;96882.00;;;29.56;41.81
41044;BME280;51680;49.806;18.774;2023-07-20T12:42:40;96879.91;;;29.58;42.11
41044;BME280;51680;49.806;18.774;2023-07-20T12:45:42;96883.63;;;29.57;41.80
41044;BME280;51680;49.806;18.774;2023-07-20T12:48:44;96879.00;;;29.64;41.19
41044;BME280;51680;49.806;18.774;2023-07-20T12:51:46;96878.16;;;29.64;40.29
41044;BME280;51680;49.806;18.774;2023-07-20T12:54:48;96875.34;;;29.59;39.85
41044;BME280;51680;49.806;18.774;2023-07-20T12:57:51;96880.94;;;29.57;40.63
41044;BME280;51680;49.806;18.774;2023-07-20T13:00:53;96878.16;;;29.64;41.16
41044;BME280;51680;49.806;18.774;2023-07-20T13:03:55;96883.59;;;29.75;40.97
41044;BME280;51680;49.806;18.774;2023-07-20T13:06:56;96878.91;;;29.82;40.39
41044;BME280;51680;49.806;18.774;2023-07-20T13:09:59;96873.69;;;29.87;39.42
41044;BME280;51680;49.806;18.774;2023-07-20T13:13:02;96874.03;;;29.91;39.11
41044;BME280;51680;49.806;18.774;2023-07-20T13:16:04;96874.84;;;29.91;39.31
41044;BME280;51680;49.806;18.774;2023-07-20T13:19:06;96869.81;;;29.83;39.33
41044;BME280;51680;49.806;18.774;2023-07-20T13:22:08;96858.19;;;29.83;39.55
41044;BME280;51680;49.806;18.774;2023-07-20T13:25:11;96871.41;;;29.73;38.70
41044;BME280;51680;49.806;18.774;2023-07-20T13:28:14;96873.84;;;29.63;39.17
41044;BME280;51680;49.806;18.774;2023-07-20T13:31:16;96868.97;;;29.53;39.05
41044;BME280;51680;49.806;18.774;2023-07-20T13:34:17;96867.06;;;29.42;39.48
41044;BME280;51680;49.806;18.774;2023-07-20T13:37:19;96871.13;;;29.33;39.63
41044;BME280;51680;49.806;18.774;2023-07-20T13:40:22;96866.16;;;29.18;39.56
41044;BME280;51680;49.806;18.774;2023-07-20T13:43:26;96859.66;;;29.08;39.48
41044;BME280;51680;49.806;18.774;2023-07-20T13:46:28;96859.16;;;28.99;39.96
41044;BME280;51680;49.806;18.774;2023-07-20T13:49:29;96853.38;;;28.96;39.84
41044;BME280;51680;49.806;18.774;2023-07-20T13:52:31;96857.56;;;28.92;40.13
41044;BME280;51680;49.806;18.774;2023-07-20T13:55:33;96861.06;;;28.92;40.60
41044;BME280;51680;49.806;18.774;2023-07-20T13:58:38;96860.84;;;28.94;41.59
41044;BME280;51680;49.806;18.774;2023-07-20T14:01:40;96862.06;;;28.98;42.75
41044;BME280;51680;49.806;18.774;2023-07-20T14:04:41;96856.28;;;28.94;42.19
41044;BME280;51680;49.806;18.774;2023-07-20T14:07:43;96867.28;;;28.93;42.54
41044;BME280;51680;49.806;18.774;2023-07-20T14:10:45;96872.38;;;29.01;41.44
41044;BME280;51680;49.806;18.774;2023-07-20T14:13:48;96873.09;;;29.08;41.63
41044;BME280;51680;49.806;18.774;2023-07-20T14:16:49;96883.13;;;29.01;41.95
41044;BME280;51680;49.806;18.774;2023-07-20T14:19:53;96882.31;;;29.00;42.20
41044;BME280;51680;49.806;18.774;2023-07-20T14:22:54;96888.94;;;28.98;41.97
41044;BME280;51680;49.806;18.774;2023-07-20T14:25:56;96882.44;;;29.05;42.65
41044;BME280;51680;49.806;18.774;2023-07-20T14:28:59;96888.03;;;29.04;42.41
41044;BME280;51680;49.806;18.774;2023-07-20T14:32:02;96899.91;;;29.14;42.49
41044;BME280;51680;49.806;18.774;2023-07-20T14:35:06;96902.97;;;29.18;42.21
41044;BME280;51680;49.806;18.774;2023-07-20T14:38:07;96917.63;;;29.04;41.75
41044;BME280;51680;49.806;18.774;2023-07-20T14:41:10;96929.50;;;28.54;42.09
41044;BME280;51680;49.806;18.774;2023-07-20T14:44:14;96956.09;;;28.06;43.23
41044;BME280;51680;49.806;18.774;2023-07-20T14:47:15;96957.19;;;27.61;44.08
41044;BME280;51680;49.806;18.774;2023-07-20T14:50:17;96968.50;;;27.13;44.83
41044;BME280;51680;49.806;18.774;2023-07-20T14:53:19;96972.91;;;26.75;46.04
41044;BME280;51680;49.806;18.774;2023-07-20T14:56:21;96966.75;;;26.35;46.97
41044;BME280;51680;49.806;18.774;2023-07-20T14:59:25;96973.97;;;26.09;48.91
41044;BME280;51680;49.806;18.774;2023-07-20T15:02:26;96957.88;;;25.96;48.00
41044;BME280;51680;49.806;18.774;2023-07-20T15:05:28;96959.31;;;25.92;48.11
41044;BME280;51680;49.806;18.774;2023-07-20T15:08:30;96964.66;;;25.92;47.91
41044;BME280;51680;49.806;18.774;2023-07-20T15:11:32;96961.16;;;25.98;47.72
41044;BME280;51680;49.806;18.774;2023-07-20T15:14:35;96962.00;;;26.05;47.91
41044;BME280;51680;49.806;18.774;2023-07-20T15:17:38;96953.16;;;26.11;47.84
41044;BME280;51680;49.806;18.774;2023-07-20T15:20:40;96965.94;;;26.09;47.30
41044;BME280;51680;49.806;18.774;2023-07-20T15:23:42;96955.63;;;26.06;47.84
41044;BME280;51680;49.806;18.774;2023-07-20T15:26:43;96948.63;;;26.05;47.65
41044;BME280;51680;49.806;18.774;2023-07-20T15:29:48;96954.38;;;26.02;47.33
41044;BME280;51680;49.806;18.774;2023-07-20T15:32:49;96962.59;;;26.00;47.29
41044;BME280;51680;49.806;18.774;2023-07-20T15:35:51;96959.34;;;26.05;47.46
41044;BME280;51680;49.806;18.774;2023-07-20T15:38:53;96952.13;;;26.12;48.20
41044;BME280;51680;49.806;18.774;2023-07-20T15:41:55;96950.69;;;26.16;46.93
41044;BME280;51680;49.806;18.774;2023-07-20T15:44:58;96953.97;;;26.18;46.77
41044;BME280;51680;49.806;18.774;2023-07-20T15:48:00;96955.84;;;26.17;46.43
41044;BME280;51680;49.806;18.774;2023-07-20T15:51:02;96958.91;;;26.14;46.77
41044;BME280;51680;49.806;18.774;2023-07-20T15:54:04;96958.91;;;26.14;46.90
41044;BME280;51680;49.806;18.774;2023-07-20T15:57:07;96965.09;;;26.15;47.51